createdAt,value
2018-02-10T00:00:45.615Z,1008.5
2018-02-10T00:01:48.039Z,1008.5
2018-02-10T00:02:50.747Z,1008.5
2018-02-10T00:03:53.439Z,1008.5
2018-02-10T00:04:55.866Z,1008.5
2018-02-10T00:05:58.281Z,1008.5
2018-02-10T00:07:00.698Z,1008.5
2018-02-10T00:08:03.138Z,1008.5
2018-02-10T00:09:05.550Z,1008.5
2018-02-10T00:10:07.972Z,1008.5
2018-02-10T00:11:10.395Z,1008.4
2018-02-10T00:12:12.821Z,1008.5
2018-02-10T00:13:15.246Z,1008.5
2018-02-10T00:14:17.666Z,1008.4
2018-02-10T00:15:20.076Z,1008.4
2018-02-10T00:16:22.503Z,1008.5
2018-02-10T00:17:24.929Z,1008.4
2018-02-10T00:18:27.348Z,1008.4
2018-02-10T00:19:29.769Z,1008.4
2018-02-10T00:20:32.464Z,1008.4
2018-02-10T00:21:34.888Z,1008.4
2018-02-10T00:22:37.321Z,1008.4
2018-02-10T00:23:39.735Z,1008.3
2018-02-10T00:24:42.150Z,1008.4
2018-02-10T00:25:44.571Z,1008.4
2018-02-10T00:26:47.005Z,1008.4
2018-02-10T00:27:49.708Z,1008.3
2018-02-10T00:28:52.135Z,1008.3
2018-02-10T00:29:54.543Z,1008.4
2018-02-10T00:30:56.968Z,1008.4
2018-02-10T00:31:59.398Z,1008.3
2018-02-10T00:33:01.817Z,1008.3
2018-02-10T00:34:04.526Z,1008.3
2018-02-10T00:35:06.950Z,1008.3
2018-02-10T00:36:09.368Z,1008.3
2018-02-10T00:37:11.785Z,1008.3
2018-02-10T00:38:14.204Z,1008.4
2018-02-10T00:39:16.628Z,1008.3
2018-02-10T00:40:19.060Z,1008.3
2018-02-10T00:41:21.460Z,1008.3
2018-02-10T00:42:23.889Z,1008.3
2018-02-10T00:43:26.591Z,1008.3
2018-02-10T00:44:29.020Z,1008.3
2018-02-10T00:45:31.433Z,1008.3
2018-02-10T00:46:33.853Z,1008.3
2018-02-10T00:47:36.267Z,1008.3
2018-02-10T00:48:38.699Z,1008.3
2018-02-10T00:49:41.117Z,1008.3
2018-02-10T00:50:43.539Z,1008.3
2018-02-10T00:51:45.955Z,1008.2
2018-02-10T00:52:48.368Z,1008.3
2018-02-10T00:53:50.792Z,1008.3
2018-02-10T00:54:53.217Z,1008.3
2018-02-10T00:55:55.630Z,1008.3
2018-02-10T00:56:58.060Z,1008.3
2018-02-10T00:58:00.482Z,1008.3
2018-02-10T00:59:03.201Z,1008.3
2018-02-10T01:00:05.614Z,1008.3
2018-02-10T01:01:08.035Z,1008.3
2018-02-10T01:02:10.448Z,1008.3
2018-02-10T01:03:13.159Z,1008.3
2018-02-10T01:04:15.578Z,1008.3
2018-02-10T01:05:17.980Z,1008.3
2018-02-10T01:06:20.410Z,1008.3
2018-02-10T01:07:22.831Z,1008.3
2018-02-10T01:08:25.250Z,1008.3
2018-02-10T01:09:27.676Z,1008.3
2018-02-10T01:10:30.093Z,1008.3
2018-02-10T01:11:32.507Z,1008.3
2018-02-10T01:12:34.938Z,1008.3
2018-02-10T01:13:37.350Z,1008.3
2018-02-10T01:14:39.770Z,1008.3
2018-02-10T01:15:42.192Z,1008.3
2018-02-10T01:16:44.617Z,1008.2
2018-02-10T01:17:47.321Z,1008.2
2018-02-10T01:18:49.757Z,1008.2
2018-02-10T01:19:52.164Z,1008.2
2018-02-10T01:20:54.591Z,1008.2
2018-02-10T01:21:57.007Z,1008.2
2018-02-10T01:22:59.432Z,1008.3
2018-02-10T01:24:01.855Z,1008.3
2018-02-10T01:25:04.285Z,1008.2
2018-02-10T01:26:06.707Z,1008.3
2018-02-10T01:27:09.133Z,1008.3
2018-02-10T01:28:11.548Z,1008.3
2018-02-10T01:29:14.261Z,1008.3
2018-02-10T01:30:16.709Z,1008.3
2018-02-10T01:31:19.097Z,1008.3
2018-02-10T01:32:21.510Z,1008.3
2018-02-10T01:33:23.937Z,1008.2
2018-02-10T01:34:26.662Z,1008.2
2018-02-10T01:35:29.086Z,1008.2
2018-02-10T01:36:31.508Z,1008.2
2018-02-10T01:37:33.931Z,1008.2
2018-02-10T01:38:36.647Z,1008.2
2018-02-10T01:39:39.074Z,1008.2
2018-02-10T01:40:41.761Z,1008.2
2018-02-10T01:41:44.189Z,1008.2
2018-02-10T01:42:46.602Z,1008.1
2018-02-10T01:43:49.031Z,1008.2
2018-02-10T01:44:51.456Z,1008.1
2018-02-10T01:45:53.870Z,1008.2
2018-02-10T01:46:56.292Z,1008.2
2018-02-10T01:47:58.727Z,1008.2
2018-02-10T01:49:01.431Z,1008.2
2018-02-10T01:50:03.860Z,1008.2
2018-02-10T01:51:06.276Z,1008.2
2018-02-10T01:52:08.703Z,1008.2
2018-02-10T01:53:11.417Z,1008.2
2018-02-10T01:54:13.846Z,1008.2
2018-02-10T01:55:16.544Z,1008.1
2018-02-10T01:56:18.964Z,1008.1
2018-02-10T01:57:21.666Z,1008.2
2018-02-10T01:58:24.091Z,1008.1
2018-02-10T01:59:26.510Z,1008.2
2018-02-10T02:00:28.916Z,1008.2
2018-02-10T02:01:31.333Z,1008.1
2018-02-10T02:02:33.775Z,1008.1
2018-02-10T02:03:36.187Z,1008.2
2018-02-10T02:04:38.613Z,1008.1
2018-02-10T02:05:41.037Z,1008.1
2018-02-10T02:06:43.459Z,1008.2
2018-02-10T02:07:45.882Z,1008.1
2018-02-10T02:08:48.303Z,1008.2
2018-02-10T02:09:50.721Z,1008.1
2018-02-10T02:10:53.150Z,1008.2
2018-02-10T02:11:55.557Z,1008.1
2018-02-10T02:12:57.988Z,1008.1
2018-02-10T02:14:00.403Z,1008.1
2018-02-10T02:15:02.825Z,1008.1
2018-02-10T02:16:05.524Z,1008.1
2018-02-10T02:17:07.938Z,1008.1
2018-02-10T02:18:10.359Z,1008.2
2018-02-10T02:19:12.790Z,1008.1
2018-02-10T02:20:15.218Z,1008.1
2018-02-10T02:21:17.622Z,1008.1
2018-02-10T02:22:20.044Z,1008
2018-02-10T02:23:22.467Z,1008
2018-02-10T02:24:24.890Z,1008.1
2018-02-10T02:25:27.306Z,1008.1
2018-02-10T02:26:30.016Z,1008.1
2018-02-10T02:27:32.720Z,1008.1
2018-02-10T02:28:35.163Z,1008.1
2018-02-10T02:29:37.578Z,1008.1
2018-02-10T02:30:40.300Z,1008.1
2018-02-10T02:31:42.721Z,1008.1
2018-02-10T02:32:45.453Z,1008.2
2018-02-10T02:33:47.866Z,1008.2
2018-02-10T02:34:50.284Z,1008.1
2018-02-10T02:35:52.996Z,1008.1
2018-02-10T02:36:55.405Z,1008
2018-02-10T02:37:57.826Z,1008
2018-02-10T02:39:00.536Z,1008.1
2018-02-10T02:40:02.959Z,1008
2018-02-10T02:41:05.390Z,1008
2018-02-10T02:42:08.103Z,1008.1
2018-02-10T02:43:10.513Z,1008
2018-02-10T02:44:12.939Z,1008
2018-02-10T02:45:15.369Z,1008
2018-02-10T02:46:17.787Z,1008
2018-02-10T02:47:20.213Z,1008
2018-02-10T02:48:22.908Z,1008
2018-02-10T02:49:25.335Z,1008
2018-02-10T02:50:28.039Z,1008
2018-02-10T02:51:30.760Z,1008
2018-02-10T02:52:33.176Z,1008
2018-02-10T02:53:35.584Z,1007.9
2018-02-10T02:54:38.013Z,1008
2018-02-10T02:55:40.430Z,1008
2018-02-10T02:56:42.855Z,1007.9
2018-02-10T02:57:45.559Z,1008
2018-02-10T02:58:47.988Z,1008
2018-02-10T02:59:50.411Z,1007.9
2018-02-10T03:00:52.848Z,1008
2018-02-10T03:01:55.269Z,1008
2018-02-10T03:02:57.980Z,1008
2018-02-10T03:04:00.400Z,1008
2018-02-10T03:05:02.826Z,1008
2018-02-10T03:06:05.242Z,1008
2018-02-10T03:07:07.677Z,1008
2018-02-10T03:08:10.096Z,1008
2018-02-10T03:09:12.793Z,1007.9
2018-02-10T03:10:15.219Z,1007.9
2018-02-10T03:11:17.638Z,1008
2018-02-10T03:12:20.064Z,1008
2018-02-10T03:13:22.478Z,1008
2018-02-10T03:14:24.892Z,1007.9
2018-02-10T03:15:27.590Z,1007.9
2018-02-10T03:16:30.026Z,1008
2018-02-10T03:17:32.429Z,1007.9
2018-02-10T03:18:34.868Z,1007.9
2018-02-10T03:19:37.280Z,1008
2018-02-10T03:20:39.700Z,1007.9
2018-02-10T03:21:42.118Z,1008
2018-02-10T03:22:44.532Z,1007.9
2018-02-10T03:23:46.954Z,1007.9
2018-02-10T03:24:49.670Z,1007.9
2018-02-10T03:25:52.082Z,1007.9
2018-02-10T03:26:54.511Z,1007.9
2018-02-10T03:27:56.933Z,1007.8
2018-02-10T03:28:59.354Z,1007.9
2018-02-10T03:30:01.768Z,1007.8
2018-02-10T03:31:04.191Z,1007.8
2018-02-10T03:32:06.606Z,1007.8
2018-02-10T03:33:09.025Z,1007.8
2018-02-10T03:34:11.437Z,1007.8
2018-02-10T03:35:13.857Z,1007.8
2018-02-10T03:36:16.280Z,1007.8
2018-02-10T03:37:18.698Z,1007.9
2018-02-10T03:38:21.121Z,1007.9
2018-02-10T03:39:23.829Z,1007.9
2018-02-10T03:40:26.243Z,1007.9
2018-02-10T03:41:28.674Z,1007.9
2018-02-10T03:42:31.077Z,1008
2018-02-10T03:43:33.493Z,1008
2018-02-10T03:44:35.913Z,1008
2018-02-10T03:45:38.322Z,1008
2018-02-10T03:46:40.746Z,1008
2018-02-10T03:47:43.167Z,1008
2018-02-10T03:48:45.881Z,1008
2018-02-10T03:49:48.295Z,1008
2018-02-10T03:50:50.720Z,1008.1
2018-02-10T03:51:53.126Z,1008.1
2018-02-10T03:52:55.547Z,1008.1
2018-02-10T03:53:57.976Z,1008
2018-02-10T03:55:00.689Z,1008.1
2018-02-10T03:56:03.117Z,1008.1
2018-02-10T03:57:05.533Z,1008.1
2018-02-10T03:58:08.582Z,1008
2018-02-10T03:59:11.006Z,1008.1
2018-02-10T04:00:13.427Z,1008.1
2018-02-10T04:01:15.836Z,1008.1
2018-02-10T04:02:18.253Z,1008
2018-02-10T04:03:20.677Z,1008.1
2018-02-10T04:04:23.101Z,1008
2018-02-10T04:05:25.521Z,1008
2018-02-10T04:06:27.941Z,1008
2018-02-10T04:07:30.638Z,1008.1
2018-02-10T04:08:33.350Z,1008.1
2018-02-10T04:09:35.765Z,1008.1
2018-02-10T04:10:38.468Z,1008.1
2018-02-10T04:11:40.889Z,1008.1
2018-02-10T04:12:43.595Z,1008.2
2018-02-10T04:13:46.020Z,1008.2
2018-02-10T04:14:48.442Z,1008.2
2018-02-10T04:15:50.857Z,1008.2
2018-02-10T04:16:53.284Z,1008.2
2018-02-10T04:17:55.692Z,1008.2
2018-02-10T04:18:58.114Z,1008.2
2018-02-10T04:20:00.538Z,1008.2
2018-02-10T04:21:02.961Z,1008.3
2018-02-10T04:22:05.382Z,1008.2
2018-02-10T04:23:07.808Z,1008.2
2018-02-10T04:24:10.221Z,1008.3
2018-02-10T04:25:12.655Z,1008.3
2018-02-10T04:26:15.072Z,1008.2
2018-02-10T04:27:17.478Z,1008.2
2018-02-10T04:28:19.902Z,1008.2
2018-02-10T04:29:22.315Z,1008.2
2018-02-10T04:30:24.733Z,1008.2
2018-02-10T04:31:27.145Z,1008.2
2018-02-10T04:32:29.857Z,1008.2
2018-02-10T04:33:32.276Z,1008.2
2018-02-10T04:34:34.698Z,1008.1
2018-02-10T04:35:37.121Z,1008.2
2018-02-10T04:36:39.541Z,1008.2
2018-02-10T04:37:42.242Z,1008.2
2018-02-10T04:38:44.659Z,1008.1
2018-02-10T04:39:47.069Z,1008.2
2018-02-10T04:40:49.484Z,1008.1
2018-02-10T04:41:51.907Z,1008.1
2018-02-10T04:42:54.332Z,1008.1
2018-02-10T04:43:57.025Z,1008.1
2018-02-10T04:44:59.444Z,1008.1
2018-02-10T04:46:01.863Z,1008.1
2018-02-10T04:47:04.289Z,1008.2
2018-02-10T04:48:06.712Z,1008.2
2018-02-10T04:49:09.128Z,1008.1
2018-02-10T04:50:11.556Z,1008.1
2018-02-10T04:51:14.266Z,1008.1
2018-02-10T04:52:16.680Z,1008.1
2018-02-10T04:53:19.683Z,1008.1
2018-02-10T04:54:22.103Z,1008.1
2018-02-10T04:55:24.521Z,1008.1
2018-02-10T04:56:26.942Z,1008.1
2018-02-10T04:57:29.361Z,1008.1
2018-02-10T04:58:31.762Z,1008.1
2018-02-10T04:59:34.196Z,1008.1
2018-02-10T05:00:36.612Z,1008.1
2018-02-10T05:01:39.313Z,1008.1
2018-02-10T05:02:41.731Z,1008.1
2018-02-10T05:03:44.149Z,1008.2
2018-02-10T05:04:46.572Z,1008.1
2018-02-10T05:05:48.977Z,1008.1
2018-02-10T05:06:51.390Z,1008.1
2018-02-10T05:07:53.810Z,1008.1
2018-02-10T05:08:56.232Z,1008.1
2018-02-10T05:09:58.655Z,1008.1
2018-02-10T05:11:01.388Z,1008.1
2018-02-10T05:12:03.811Z,1008.1
2018-02-10T05:13:06.240Z,1008.1
2018-02-10T05:14:08.664Z,1008.2
2018-02-10T05:15:11.078Z,1008.1
2018-02-10T05:16:13.504Z,1008.1
2018-02-10T05:17:15.924Z,1008.1
2018-02-10T05:18:18.338Z,1008.2
2018-02-10T05:19:20.757Z,1008.1
2018-02-10T05:20:23.166Z,1008.1
2018-02-10T05:21:25.582Z,1008.1
2018-02-10T05:22:28.002Z,1008.1
2018-02-10T05:23:30.412Z,1008.2
2018-02-10T05:24:32.831Z,1008.2
2018-02-10T05:25:35.257Z,1008.2
2018-02-10T05:26:37.673Z,1008.2
2018-02-10T05:27:40.093Z,1008.2
2018-02-10T05:28:42.513Z,1008.2
2018-02-10T05:29:44.927Z,1008.2
2018-02-10T05:30:47.340Z,1008.2
2018-02-10T05:31:49.769Z,1008.2
2018-02-10T05:32:52.467Z,1008.2
2018-02-10T05:33:54.884Z,1008.2
2018-02-10T05:34:57.588Z,1008.2
2018-02-10T05:36:00.013Z,1008.2
2018-02-10T05:37:02.716Z,1008.2
2018-02-10T05:38:05.430Z,1008.2
2018-02-10T05:39:07.835Z,1008.3
2018-02-10T05:40:10.551Z,1008.3
2018-02-10T05:41:12.977Z,1008.3
2018-02-10T05:42:15.393Z,1008.2
2018-02-10T05:43:18.089Z,1008.2
2018-02-10T05:44:20.508Z,1008.3
2018-02-10T05:45:22.921Z,1008.2
2018-02-10T05:46:25.637Z,1008.2
2018-02-10T05:47:28.056Z,1008.2
2018-02-10T05:48:30.486Z,1008.2
2018-02-10T05:49:32.889Z,1008.2
2018-02-10T05:50:35.309Z,1008.3
2018-02-10T05:51:37.726Z,1008.3
2018-02-10T05:52:40.143Z,1008.3
2018-02-10T05:53:42.560Z,1008.3
2018-02-10T05:54:44.971Z,1008.4
2018-02-10T05:55:47.394Z,1008.3
2018-02-10T05:56:49.823Z,1008.3
2018-02-10T05:57:52.507Z,1008.4
2018-02-10T05:58:54.926Z,1008.4
2018-02-10T05:59:57.349Z,1008.4
2018-02-10T06:00:59.769Z,1008.4
2018-02-10T06:02:02.180Z,1008.5
2018-02-10T06:03:04.597Z,1008.5
2018-02-10T06:04:07.029Z,1008.5
2018-02-10T06:05:10.014Z,1008.5
2018-02-10T06:06:12.428Z,1008.4
2018-02-10T06:07:15.138Z,1008.5
2018-02-10T06:08:17.550Z,1008.5
2018-02-10T06:09:20.260Z,1008.5
2018-02-10T06:10:22.672Z,1008.5
2018-02-10T06:11:25.083Z,1008.5
2018-02-10T06:12:27.787Z,1008.5
2018-02-10T06:13:30.204Z,1008.5
2018-02-10T06:14:32.607Z,1008.5
2018-02-10T06:15:35.031Z,1008.5
2018-02-10T06:16:37.734Z,1008.4
2018-02-10T06:17:40.152Z,1008.4
2018-02-10T06:18:42.850Z,1008.4
2018-02-10T06:19:45.260Z,1008.4
2018-02-10T06:20:47.672Z,1008.4
2018-02-10T06:21:50.094Z,1008.4
2018-02-10T06:22:52.510Z,1008.4
2018-02-10T06:23:54.927Z,1008.5
2018-02-10T06:24:57.346Z,1008.4
2018-02-10T06:25:59.764Z,1008.5
2018-02-10T06:27:02.191Z,1008.5
2018-02-10T06:28:04.609Z,1008.5
2018-02-10T06:29:07.016Z,1008.5
2018-02-10T06:30:09.429Z,1008.5
2018-02-10T06:31:11.865Z,1008.5
2018-02-10T06:32:14.279Z,1008.5
2018-02-10T06:33:16.708Z,1008.5
2018-02-10T06:34:19.408Z,1008.6
2018-02-10T06:35:21.820Z,1008.6
2018-02-10T06:36:24.237Z,1008.6
2018-02-10T06:37:26.658Z,1008.6
2018-02-10T06:38:29.069Z,1008.5
2018-02-10T06:39:31.787Z,1008.5
2018-02-10T06:40:34.208Z,1008.6
2018-02-10T06:41:36.625Z,1008.6
2018-02-10T06:42:39.047Z,1008.6
2018-02-10T06:43:41.799Z,1008.6
2018-02-10T06:44:44.516Z,1008.5
2018-02-10T06:45:46.936Z,1008.6
2018-02-10T06:46:49.345Z,1008.6
2018-02-10T06:47:52.048Z,1008.6
2018-02-10T06:48:54.466Z,1008.6
2018-02-10T06:49:56.885Z,1008.6
2018-02-10T06:50:59.590Z,1008.6
2018-02-10T06:52:02.018Z,1008.6
2018-02-10T06:53:04.432Z,1008.6
2018-02-10T06:54:06.854Z,1008.6
2018-02-10T06:55:09.280Z,1008.6
2018-02-10T06:56:11.691Z,1008.7
2018-02-10T06:57:14.398Z,1008.6
2018-02-10T06:58:16.819Z,1008.7
2018-02-10T06:59:19.521Z,1008.7
2018-02-10T07:00:21.941Z,1008.7
2018-02-10T07:01:24.362Z,1008.7
2018-02-10T07:02:27.083Z,1008.7
2018-02-10T07:03:29.495Z,1008.7
2018-02-10T07:04:31.912Z,1008.7
2018-02-10T07:05:34.328Z,1008.7
2018-02-10T07:06:36.748Z,1008.7
2018-02-10T07:07:39.170Z,1008.7
2018-02-10T07:08:41.589Z,1008.7
2018-02-10T07:09:43.995Z,1008.7
2018-02-10T07:10:46.421Z,1008.7
2018-02-10T07:11:49.139Z,1008.6
2018-02-10T07:12:51.564Z,1008.6
2018-02-10T07:13:54.258Z,1008.6
2018-02-10T07:14:56.674Z,1008.6
2018-02-10T07:15:59.088Z,1008.7
2018-02-10T07:17:01.518Z,1008.7
2018-02-10T07:18:03.926Z,1008.7
2018-02-10T07:19:06.647Z,1008.7
2018-02-10T07:20:09.059Z,1008.6
2018-02-10T07:21:11.480Z,1008.6
2018-02-10T07:22:14.189Z,1008.6
2018-02-10T07:23:16.608Z,1008.6
2018-02-10T07:24:19.019Z,1008.6
2018-02-10T07:25:21.438Z,1008.6
2018-02-10T07:26:23.856Z,1008.6
2018-02-10T07:27:26.283Z,1008.6
2018-02-10T07:28:28.973Z,1008.6
2018-02-10T07:29:31.383Z,1008.6
2018-02-10T07:30:33.813Z,1008.5
2018-02-10T07:31:36.224Z,1008.5
2018-02-10T07:32:38.647Z,1008.5
2018-02-10T07:33:41.064Z,1008.5
2018-02-10T07:34:43.479Z,1008.5
2018-02-10T07:35:45.894Z,1008.5
2018-02-10T07:36:48.594Z,1008.5
2018-02-10T07:37:51.001Z,1008.5
2018-02-10T07:38:53.426Z,1008.5
2018-02-10T07:39:55.850Z,1008.5
2018-02-10T07:40:58.263Z,1008.5
2018-02-10T07:42:00.689Z,1008.5
2018-02-10T07:43:03.107Z,1008.5
2018-02-10T07:44:05.802Z,1008.5
2018-02-10T07:45:08.513Z,1008.5
2018-02-10T07:46:10.938Z,1008.6
2018-02-10T07:47:13.357Z,1008.5
2018-02-10T07:48:15.769Z,1008.5
2018-02-10T07:49:18.197Z,1008.5
2018-02-10T07:50:20.612Z,1008.6
2018-02-10T07:51:23.101Z,1008.6
2018-02-10T07:52:25.447Z,1008.6
2018-02-10T07:53:27.865Z,1008.6
2018-02-10T07:54:30.284Z,1008.7
2018-02-10T07:55:32.706Z,1008.7
2018-02-10T07:56:35.130Z,1008.7
2018-02-10T07:57:37.545Z,1008.7
2018-02-10T07:58:39.972Z,1008.7
2018-02-10T07:59:42.674Z,1008.7
2018-02-10T08:00:45.683Z,1008.7
2018-02-10T08:01:48.391Z,1008.8
2018-02-10T08:02:50.794Z,1008.7
2018-02-10T08:03:53.216Z,1008.7
2018-02-10T08:04:55.634Z,1008.7
2018-02-10T08:05:58.053Z,1008.7
2018-02-10T08:07:00.483Z,1008.7
2018-02-10T08:08:02.905Z,1008.7
2018-02-10T08:09:05.330Z,1008.7
2018-02-10T08:10:07.765Z,1008.6
2018-02-10T08:11:10.165Z,1008.7
2018-02-10T08:12:12.585Z,1008.7
2018-02-10T08:13:15.008Z,1008.7
2018-02-10T08:14:17.432Z,1008.7
2018-02-10T08:15:19.851Z,1008.7
2018-02-10T08:16:22.552Z,1008.7
2018-02-10T08:17:24.966Z,1008.7
2018-02-10T08:18:27.398Z,1008.7
2018-02-10T08:19:29.818Z,1008.7
2018-02-10T08:20:32.524Z,1008.6
2018-02-10T08:21:34.936Z,1008.6
2018-02-10T08:22:37.349Z,1008.6
2018-02-10T08:23:39.781Z,1008.6
2018-02-10T08:24:42.203Z,1008.6
2018-02-10T08:25:44.937Z,1008.5
2018-02-10T08:26:47.342Z,1008.6
2018-02-10T08:27:49.762Z,1008.6
2018-02-10T08:28:52.182Z,1008.5
2018-02-10T08:29:54.880Z,1008.6
2018-02-10T08:30:57.312Z,1008.5
2018-02-10T08:31:59.720Z,1008.5
2018-02-10T08:33:02.137Z,1008.5
2018-02-10T08:34:04.557Z,1008.5
2018-02-10T08:35:07.280Z,1008.5
2018-02-10T08:36:09.700Z,1008.5
2018-02-10T08:37:12.136Z,1008.5
2018-02-10T08:38:14.544Z,1008.4
2018-02-10T08:39:16.971Z,1008.4
2018-02-10T08:40:19.392Z,1008.4
2018-02-10T08:41:21.814Z,1008.4
2018-02-10T08:42:24.225Z,1008.4
2018-02-10T08:43:26.657Z,1008.4
2018-02-10T08:44:29.361Z,1008.3
2018-02-10T08:45:31.793Z,1008.3
2018-02-10T08:46:34.208Z,1008.3
2018-02-10T08:47:36.918Z,1008.3
2018-02-10T08:48:39.336Z,1008.3
2018-02-10T08:49:41.775Z,1008.3
2018-02-10T08:50:44.195Z,1008.4
2018-02-10T08:51:46.614Z,1008.4
2018-02-10T08:52:49.319Z,1008.4
2018-02-10T08:53:51.740Z,1008.4
2018-02-10T08:54:54.170Z,1008.4
2018-02-10T08:55:56.603Z,1008.4
2018-02-10T08:56:59.016Z,1008.4
2018-02-10T08:58:01.439Z,1008.4
2018-02-10T08:59:03.868Z,1008.3
2018-02-10T09:00:06.291Z,1008.4
2018-02-10T09:01:08.706Z,1008.4
2018-02-10T09:02:11.134Z,1008.4
2018-02-10T09:03:13.558Z,1008.4
2018-02-10T09:04:15.982Z,1008.4
2018-02-10T09:05:18.696Z,1008.3
2018-02-10T09:06:21.123Z,1008.2
2018-02-10T09:07:23.542Z,1008.3
2018-02-10T09:08:25.984Z,1008.3
2018-02-10T09:09:28.408Z,1008.3
2018-02-10T09:10:31.116Z,1008.3
2018-02-10T09:11:33.546Z,1008.3
2018-02-10T09:12:35.966Z,1008.3
2018-02-10T09:13:38.395Z,1008.3
2018-02-10T09:14:40.826Z,1008.3
2018-02-10T09:15:43.236Z,1008.3
2018-02-10T09:16:45.661Z,1008.3
2018-02-10T09:17:48.084Z,1008.3
2018-02-10T09:18:50.507Z,1008.3
2018-02-10T09:19:52.943Z,1008.3
2018-02-10T09:20:55.370Z,1008.3
2018-02-10T09:21:58.079Z,1008.4
2018-02-10T09:23:00.517Z,1008.3
2018-02-10T09:24:02.950Z,1008.3
2018-02-10T09:25:05.368Z,1008.3
2018-02-10T09:26:08.096Z,1008.3
2018-02-10T09:27:10.799Z,1008.3
2018-02-10T09:28:13.221Z,1008.3
2018-02-10T09:29:15.646Z,1008.3
2018-02-10T09:30:18.080Z,1008.2
2018-02-10T09:31:20.810Z,1008.2
2018-02-10T09:32:23.244Z,1008.2
2018-02-10T09:33:25.667Z,1008.2
2018-02-10T09:34:28.384Z,1008.2
2018-02-10T09:35:30.803Z,1008.2
2018-02-10T09:36:33.230Z,1008.2
2018-02-10T09:37:35.659Z,1008.2
2018-02-10T09:38:38.094Z,1008.2
2018-02-10T09:39:40.520Z,1008.2
2018-02-10T09:40:43.241Z,1008.2
2018-02-10T09:41:45.652Z,1008.2
2018-02-10T09:42:48.087Z,1008.2
2018-02-10T09:43:50.523Z,1008.1
2018-02-10T09:44:52.952Z,1008.2
2018-02-10T09:45:55.373Z,1008.2
2018-02-10T09:46:57.807Z,1008.2
2018-02-10T09:48:00.514Z,1008.2
2018-02-10T09:49:03.248Z,1008.2
2018-02-10T09:50:05.678Z,1008.3
2018-02-10T09:51:08.402Z,1008.2
2018-02-10T09:52:11.131Z,1008.2
2018-02-10T09:53:13.543Z,1008.2
2018-02-10T09:54:15.972Z,1008.2
2018-02-10T09:55:18.403Z,1008.2
2018-02-10T09:56:20.824Z,1008.1
2018-02-10T09:57:23.243Z,1008.1
2018-02-10T09:58:25.687Z,1008.1
2018-02-10T09:59:28.108Z,1008.1
2018-02-10T10:00:30.816Z,1008.1
2018-02-10T10:01:33.243Z,1008.1
2018-02-10T10:02:35.664Z,1008.1
2018-02-10T10:03:38.093Z,1008.1
2018-02-10T10:04:40.524Z,1008.1
2018-02-10T10:05:42.947Z,1008
2018-02-10T10:06:45.389Z,1008
2018-02-10T10:07:47.826Z,1008
2018-02-10T10:08:50.539Z,1008
2018-02-10T10:09:53.248Z,1008
2018-02-10T10:10:55.683Z,1008
2018-02-10T10:11:58.409Z,1008
2018-02-10T10:13:00.843Z,1008
2018-02-10T10:14:03.293Z,1008
2018-02-10T10:15:05.704Z,1008
2018-02-10T10:16:08.412Z,1008
2018-02-10T10:17:10.843Z,1008
2018-02-10T10:18:13.265Z,1008
2018-02-10T10:19:15.689Z,1008
2018-02-10T10:20:18.113Z,1008
2018-02-10T10:21:20.553Z,1008
2018-02-10T10:22:23.281Z,1008
2018-02-10T10:23:25.723Z,1008
2018-02-10T10:24:28.149Z,1008
2018-02-10T10:25:30.587Z,1008
2018-02-10T10:26:33.014Z,1008
2018-02-10T10:27:35.445Z,1008
2018-02-10T10:28:37.870Z,1008
2018-02-10T10:29:40.296Z,1008
2018-02-10T10:30:42.734Z,1008
2018-02-10T10:31:45.148Z,1007.9
2018-02-10T10:32:47.581Z,1008
2018-02-10T10:33:50.023Z,1007.9
2018-02-10T10:34:52.444Z,1007.9
2018-02-10T10:35:54.877Z,1007.9
2018-02-10T10:36:57.613Z,1007.9
2018-02-10T10:38:00.039Z,1007.9
2018-02-10T10:39:02.479Z,1007.9
2018-02-10T10:40:04.911Z,1007.9
2018-02-10T10:41:07.332Z,1007.9
2018-02-10T10:42:09.773Z,1007.9
2018-02-10T10:43:12.195Z,1007.9
2018-02-10T10:44:14.626Z,1007.9
2018-02-10T10:45:17.061Z,1007.8
2018-02-10T10:46:19.479Z,1007.8
2018-02-10T10:47:21.908Z,1007.8
2018-02-10T10:48:24.347Z,1007.8
2018-02-10T10:49:27.062Z,1007.8
2018-02-10T10:50:29.491Z,1007.8
2018-02-10T10:51:31.923Z,1007.8
2018-02-10T10:52:34.356Z,1007.7
2018-02-10T10:53:36.793Z,1007.7
2018-02-10T10:54:39.233Z,1007.7
2018-02-10T10:55:41.934Z,1007.8
2018-02-10T10:56:44.360Z,1007.8
2018-02-10T10:57:46.809Z,1007.8
2018-02-10T10:58:49.246Z,1007.8
2018-02-10T10:59:51.680Z,1007.8
2018-02-10T11:00:54.114Z,1007.8
2018-02-10T11:01:56.544Z,1007.8
2018-02-10T11:02:58.980Z,1007.8
2018-02-10T11:04:01.704Z,1007.8
2018-02-10T11:05:04.125Z,1007.7
2018-02-10T11:06:06.550Z,1007.7
2018-02-10T11:07:09.282Z,1007.8
2018-02-10T11:08:11.712Z,1007.7
2018-02-10T11:09:14.145Z,1007.8
2018-02-10T11:10:16.584Z,1007.8
2018-02-10T11:11:19.009Z,1007.8
2018-02-10T11:12:21.453Z,1007.8
2018-02-10T11:13:23.881Z,1007.7
2018-02-10T11:14:26.310Z,1007.7
2018-02-10T11:15:28.744Z,1007.7
2018-02-10T11:16:31.192Z,1007.8
2018-02-10T11:17:33.629Z,1007.7
2018-02-10T11:18:36.069Z,1007.8
2018-02-10T11:19:38.487Z,1007.7
2018-02-10T11:20:40.920Z,1007.7
2018-02-10T11:21:43.366Z,1007.7
2018-02-10T11:22:45.799Z,1007.7
2018-02-10T11:23:48.226Z,1007.7
2018-02-10T11:24:50.657Z,1007.6
2018-02-10T11:25:53.088Z,1007.6
2018-02-10T11:26:55.524Z,1007.6
2018-02-10T11:27:57.957Z,1007.6
2018-02-10T11:29:00.404Z,1007.5
2018-02-10T11:30:02.841Z,1007.5
2018-02-10T11:31:05.273Z,1007.5
2018-02-10T11:32:07.701Z,1007.5
2018-02-10T11:33:10.130Z,1007.5
2018-02-10T11:34:12.569Z,1007.4
2018-02-10T11:35:14.999Z,1007.5
2018-02-10T11:36:17.425Z,1007.3
2018-02-10T11:37:20.168Z,1007.3
2018-02-10T11:38:22.599Z,1007.3
2018-02-10T11:39:25.050Z,1007.3
2018-02-10T11:40:27.484Z,1007.4
2018-02-10T11:41:29.922Z,1007.4
2018-02-10T11:42:32.353Z,1007.3
2018-02-10T11:43:34.797Z,1007.3
2018-02-10T11:44:37.539Z,1007.3
2018-02-10T11:45:39.981Z,1007.2
2018-02-10T11:46:42.713Z,1007.2
2018-02-10T11:47:45.159Z,1007.3
2018-02-10T11:48:47.879Z,1007.3
2018-02-10T11:49:50.312Z,1007.3
2018-02-10T11:50:52.742Z,1007.2
2018-02-10T11:51:55.181Z,1007.3
2018-02-10T11:52:57.900Z,1007.3
2018-02-10T11:54:00.341Z,1007.3
2018-02-10T11:55:02.770Z,1007.3
2018-02-10T11:56:05.208Z,1007.3
2018-02-10T11:57:07.646Z,1007.3
2018-02-10T11:58:10.087Z,1007.3
2018-02-10T11:59:12.864Z,1007.3
2018-02-10T12:00:15.293Z,1007.3
2018-02-10T12:01:17.737Z,1007.3
2018-02-10T12:02:20.168Z,1007.3
2018-02-10T12:03:22.598Z,1007.2
2018-02-10T12:04:25.331Z,1007.3
2018-02-10T12:05:27.791Z,1007.3
2018-02-10T12:06:30.206Z,1007.3
2018-02-10T12:07:32.928Z,1007.3
2018-02-10T12:08:35.365Z,1007.3
2018-02-10T12:09:37.802Z,1007.3
2018-02-10T12:10:40.243Z,1007.3
2018-02-10T12:11:42.674Z,1007.2
2018-02-10T12:12:45.118Z,1007.2
2018-02-10T12:13:47.544Z,1007.2
2018-02-10T12:14:49.984Z,1007.3
2018-02-10T12:15:52.421Z,1007.3
2018-02-10T12:16:54.859Z,1007.3
2018-02-10T12:17:57.286Z,1007.3
2018-02-10T12:18:59.999Z,1007.3
2018-02-10T12:20:02.512Z,1007.3
2018-02-10T12:21:05.185Z,1007.2
2018-02-10T12:22:07.621Z,1007.3
2018-02-10T12:23:10.343Z,1007.3
2018-02-10T12:24:12.778Z,1007.3
2018-02-10T12:25:15.253Z,1007.3
2018-02-10T12:26:17.978Z,1007.3
2018-02-10T12:27:20.414Z,1007.2
2018-02-10T12:28:22.858Z,1007.2
2018-02-10T12:29:25.281Z,1007.2
2018-02-10T12:30:27.722Z,1007.2
2018-02-10T12:31:30.160Z,1007.2
2018-02-10T12:32:32.595Z,1007.2
2018-02-10T12:33:35.034Z,1007.3
2018-02-10T12:34:37.749Z,1007.3
2018-02-10T12:35:40.192Z,1007.3
2018-02-10T12:36:42.638Z,1007.3
2018-02-10T12:37:45.056Z,1007.2
2018-02-10T12:38:47.496Z,1007.2
2018-02-10T12:39:49.934Z,1007.2
2018-02-10T12:40:52.377Z,1007.2
2018-02-10T12:41:54.813Z,1007.1
2018-02-10T12:42:57.249Z,1007.1
2018-02-10T12:43:59.683Z,1007.1
2018-02-10T12:45:02.134Z,1007.1
2018-02-10T12:46:04.562Z,1007
2018-02-10T12:47:07.004Z,1007.1
2018-02-10T12:48:09.735Z,1007
2018-02-10T12:49:12.168Z,1007.1
2018-02-10T12:50:14.609Z,1007.1
2018-02-10T12:51:17.050Z,1007
2018-02-10T12:52:19.476Z,1007
2018-02-10T12:53:21.919Z,1007
2018-02-10T12:54:24.364Z,1006.9
2018-02-10T12:55:26.801Z,1006.9
2018-02-10T12:56:29.232Z,1006.9
2018-02-10T12:57:31.672Z,1006.9
2018-02-10T12:58:34.105Z,1006.8
2018-02-10T12:59:36.601Z,1006.8
2018-02-10T13:00:39.314Z,1006.9
2018-02-10T13:01:41.765Z,1006.9
2018-02-10T13:02:44.187Z,1006.8
2018-02-10T13:03:46.929Z,1006.8
2018-02-10T13:04:49.363Z,1006.8